Time;durP1;ratioP1;P1;durP2;ratioP2;P2;SDS_P1;SDS_P2;PMS_P1;PMS_P2;Temp;Humidity;BMP_temperature;BMP_pressure;BME280_temperature;BME280_humidity;BME280_pressure;Samples;Min_cycle;Max_cycle;Signal;HPM_P1;HPM_P2
2023/07/09 00:02:12;;;;;;;;;12.00;10.67;;;;;27.65;51.79;101185.97;5060052;28;45550;-70
2023/07/09 00:04:38;;;;;;;;;10.00;10.00;;;;;27.65;52.22;101183.22;5059188;28;45452;-71
2023/07/09 00:07:04;;;;;;;;;10.00;10.00;;;;;27.44;52.25;101166.44;5077546;28;45743;-70
2023/07/09 00:09:29;;;;;;;;;8.33;8.33;;;;;27.53;52.64;101192.28;5077170;27;45336;-70
2023/07/09 00:11:55;;;;;;;;;10.33;10.00;;;;;27.52;52.80;101187.88;5077253;28;45296;-72
2023/07/09 00:14:21;;;;;;;;;9.00;8.33;;;;;27.34;52.34;101155.31;5059410;28;45537;-70
2023/07/09 00:16:48;;;;;;;;;10.67;9.67;;;;;27.25;52.48;101145.88;5059118;28;47314;-70
2023/07/09 00:19:17;;;;;;;;;8.67;8.00;;;;;27.39;52.65;101179.97;5059088;28;46470;-71
2023/07/09 00:21:44;;;;;;;;;10.00;9.00;;;;;27.47;52.84;101204.19;5077519;28;45510;-69
2023/07/09 00:24:10;;;;;;;;;12.67;12.00;;;;;27.37;52.96;101184.03;5077635;27;45529;-69
2023/07/09 00:26:38;;;;;;;;;11.00;10.00;;;;;27.42;52.75;101201.34;5077203;28;45536;-71
2023/07/09 00:29:03;;;;;;;;;10.00;8.33;;;;;27.36;53.44;101204.22;5058976;28;46147;-71
2023/07/09 00:31:29;;;;;;;;;7.67;7.67;;;;;26.93;53.18;101132.69;5058848;28;45361;-69
2023/07/09 00:33:55;;;;;;;;;10.67;9.67;;;;;26.90;53.20;101138.63;5077551;28;45171;-70
2023/07/09 00:36:32;;;;;;;;;11.00;9.00;;;;;27.30;53.41;101200.56;5077128;28;45657;-70
2023/07/09 00:39:04;;;;;;;;;11.67;9.67;;;;;27.12;53.31;101179.75;5076803;27;45493;-69
2023/07/09 00:41:33;;;;;;;;;10.67;9.00;;;;;27.23;53.39;101208.06;5077165;28;45159;-70
2023/07/09 00:44:20;;;;;;;;;14.67;14.67;;;;;27.21;53.52;101210.22;5077224;27;45668;-70
2023/07/09 00:46:46;;;;;;;;;10.33;10.33;;;;;27.20;53.55;101208.56;5077434;28;46830;-71
2023/07/09 00:49:15;;;;;;;;;12.00;12.00;;;;;27.15;53.82;101211.19;5080423;27;45416;-69
2023/07/09 00:51:45;;;;;;;;;11.33;9.67;;;;;26.81;53.62;101164.63;5080854;28;45475;-69
2023/07/09 00:54:14;;;;;;;;;6.00;6.00;;;;;27.18;53.76;101221.63;5046181;28;45621;-71
2023/07/09 00:56:45;;;;;;;;;7.67;7.67;;;;;27.15;53.83;101222.94;5080280;28;46785;-70
2023/07/09 00:59:16;;;;;;;;;10.33;9.00;;;;;27.09;54.18;101225.81;5080362;27;45359;-70
2023/07/09 01:01:42;;;;;;;;;13.00;12.67;;;;;26.97;53.93;101210.25;5080503;27;45259;-69
2023/07/09 01:04:10;;;;;;;;;13.00;11.67;;;;;26.95;53.76;101206.09;5080712;28;45518;-70
2023/07/09 01:06:39;;;;;;;;;8.67;8.67;;;;;26.94;54.35;101210.75;5080499;27;45513;-70
2023/07/09 01:09:07;;;;;;;;;12.33;10.33;;;;;26.95;54.53;101217.84;5080190;27;45331;-70
2023/07/09 01:11:33;;;;;;;;;9.00;9.00;;;;;26.97;54.66;101226.63;5062212;28;45603;-71
2023/07/09 01:14:02;;;;;;;;;11.67;10.00;;;;;26.93;54.38;101230.91;5080631;28;45340;-70
2023/07/09 01:16:31;;;;;;;;;11.33;9.67;;;;;26.92;54.81;101229.25;5080204;28;45958;-70
2023/07/09 01:18:57;;;;;;;;;9.00;9.00;;;;;26.94;54.76;101235.28;5080143;28;45193;-71
2023/07/09 01:21:23;;;;;;;;;7.67;7.67;;;;;26.91;54.65;101233.06;5080320;28;45376;-71
2023/07/09 01:23:49;;;;;;;;;9.00;9.00;;;;;26.87;55.24;101236.50;5080469;28;45486;-70
2023/07/09 01:26:21;;;;;;;;;9.00;9.00;;;;;26.81;55.23;101235.53;5078572;28;49090;-69
2023/07/09 01:28:48;;;;;;;;;10.67;9.33;;;;;26.72;55.42;101228.81;5080042;27;45481;-69
2023/07/09 01:31:14;;;;;;;;;10.33;10.33;;;;;26.75;55.50;101233.78;5062288;28;45747;-70
2023/07/09 01:33:41;;;;;;;;;12.33;10.67;;;;;26.43;56.03;101191.59;5080267;28;45272;-70
2023/07/09 01:36:08;;;;;;;;;11.00;9.00;;;;;26.65;55.51;101236.31;5061723;28;46574;-70
2023/07/09 01:38:34;;;;;;;;;9.33;9.00;;;;;26.68;55.70;101244.00;5079849;28;45224;-70
2023/07/09 01:41:00;;;;;;;;;9.00;9.00;;;;;26.32;56.17;101188.63;5079866;27;45209;-70
2023/07/09 01:43:27;;;;;;;;;10.67;10.67;;;;;26.59;56.24;101257.16;5080244;28;45467;-70
2023/07/09 01:45:57;;;;;;;;;8.00;8.00;;;;;26.54;56.38;101250.75;5078336;28;48869;-70
2023/07/09 01:48:24;;;;;;;;;12.00;11.00;;;;;26.50;56.64;101253.13;5079497;28;45336;-70
2023/07/09 01:50:51;;;;;;;;;12.33;11.00;;;;;26.46;56.71;101253.84;5079668;28;45371;-70
2023/07/09 01:53:19;;;;;;;;;13.00;11.67;;;;;26.37;57.04;101248.72;5079754;27;45545;-69
2023/07/09 01:55:44;;;;;;;;;11.33;10.67;;;;;26.34;56.90;101254.66;5078861;27;46067;-69
2023/07/09 01:58:10;;;;;;;;;11.67;8.67;;;;;26.38;56.91;101265.91;5079104;28;45494;-69
2023/07/09 02:00:37;;;;;;;;;15.00;12.67;;;;;26.37;57.04;101264.25;5079360;28;45428;-71
2023/07/09 02:03:04;;;;;;;;;10.67;10.67;;;;;26.27;56.93;101259.38;5079717;27;45240;-70
2023/07/09 02:05:31;;;;;;;;;11.67;11.33;;;;;26.29;57.09;101254.50;5061080;28;48039;-70
2023/07/09 02:07:57;;;;;;;;;13.00;12.00;;;;;26.27;57.12;101259.38;5078114;28;46396;-71
2023/07/09 02:10:23;;;;;;;;;12.67;12.00;;;;;26.30;56.99;101264.34;5079172;27;45244;-70
2023/07/09 02:12:48;;;;;;;;;13.67;11.00;;;;;25.90;57.04;101200.66;5079633;27;45536;-70
2023/07/09 02:15:14;;;;;;;;;10.67;10.67;;;;;26.22;57.46;101272.84;5079305;27;45623;-69
2023/07/09 02:17:40;;;;;;;;;12.33;11.33;;;;;26.20;57.48;101263.25;5079322;28;45414;-70
2023/07/09 02:20:07;;;;;;;;;10.33;9.33;;;;;26.16;57.32;101252.00;5061164;28;45466;-70
2023/07/09 02:22:34;;;;;;;;;11.33;10.00;;;;;26.08;57.48;101245.00;5079376;27;45554;-70
2023/07/09 02:24:59;;;;;;;;;11.00;10.00;;;;;26.19;57.73;101256.97;5078818;28;46515;-69
2023/07/09 02:27:25;;;;;;;;;8.33;8.33;;;;;26.14;57.15;101254.13;5078843;27;45498;-70
2023/07/09 02:29:50;;;;;;;;;8.67;8.67;;;;;26.06;57.60;101235.41;5060788;28;45306;-70
2023/07/09 02:32:21;;;;;;;;;11.00;9.00;;;;;26.13;57.55;101248.91;5079387;28;45543;-68
2023/07/09 02:34:48;;;;;;;;;12.00;11.00;;;;;25.87;57.68;101209.31;5060604;28;47808;-69
2023/07/09 02:37:16;;;;;;;;;11.33;9.33;;;;;26.11;57.44;101262.78;5078670;27;45233;-71
2023/07/09 02:39:41;;;;;;;;;11.00;10.00;;;;;26.08;57.85;101253.19;5078670;28;45430;-70
2023/07/09 02:42:11;;;;;;;;;12.00;10.67;;;;;25.96;57.37;101235.13;5078713;28;46975;-70
2023/07/09 02:44:37;;;;;;;;;10.67;10.67;;;;;26.07;57.84;101259.69;5078477;28;45793;-70
2023/07/09 02:47:02;;;;;;;;;10.33;10.33;;;;;26.04;57.75;101253.88;5078615;28;45513;-70
2023/07/09 02:49:27;;;;;;;;;15.67;11.67;;;;;26.03;57.68;101271.31;5078855;28;45356;-71
2023/07/09 02:51:53;;;;;;;;;10.67;10.33;;;;;25.95;57.59;101253.38;5060633;28;45254;-69
2023/07/09 02:54:18;;;;;;;;;10.33;9.00;;;;;25.94;57.69;101253.63;5077031;27;48219;-70
2023/07/09 02:56:43;;;;;;;;;11.67;10.00;;;;;25.99;57.57;101272.81;5046894;28;45239;-69
2023/07/09 02:59:09;;;;;;;;;9.00;9.00;;;;;25.96;57.92;101273.28;5038123;28;45239;-70
2023/07/09 03:01:35;;;;;;;;;13.00;12.00;;;;;25.56;58.14;101205.75;5038486;28;45294;-71
2023/07/09 03:04:02;;;;;;;;;11.33;11.00;;;;;25.87;58.65;101258.34;5037738;28;45734;-70
2023/07/09 03:06:28;;;;;;;;;16.67;13.00;;;;;25.74;58.25;101243.84;5038061;28;45344;-69
2023/07/09 03:08:54;;;;;;;;;11.33;10.33;;;;;25.43;58.26;101192.34;5036146;28;45337;-71
2023/07/09 03:11:20;;;;;;;;;11.67;9.67;;;;;25.87;58.71;101264.63;5037380;28;45288;-70
2023/07/09 03:13:46;;;;;;;;;10.67;10.67;;;;;25.28;58.14;101167.44;5037549;28;45609;-70
2023/07/09 03:16:12;;;;;;;;;12.00;10.67;;;;;25.61;58.62;101232.28;5037615;28;45402;-70
2023/07/09 03:18:38;;;;;;;;;10.00;10.00;;;;;25.82;58.63;101277.25;5038079;28;45476;-70
2023/07/09 03:21:04;;;;;;;;;10.00;8.67;;;;;25.83;58.61;101284.38;5036634;28;45580;-69
2023/07/09 03:23:29;;;;;;;;;8.67;8.67;;;;;25.78;58.99;101285.91;5037662;28;46615;-70
2023/07/09 03:25:55;;;;;;;;;11.33;10.33;;;;;25.51;59.22;101265.53;5037580;28;45579;-71
2023/07/09 03:28:20;;;;;;;;;12.33;10.67;;;;;25.70;59.16;101294.41;5037944;28;45301;-70
2023/07/09 03:30:48;;;;;;;;;10.00;10.00;;;;;25.34;59.18;101242.72;5037726;28;45213;-70
2023/07/09 03:33:15;;;;;;;;;11.00;10.67;;;;;25.68;59.24;101299.25;5037391;28;46570;-70
2023/07/09 03:35:41;;;;;;;;;10.00;10.00;;;;;25.60;59.13;101285.06;5037373;28;45503;-70
2023/07/09 03:38:08;;;;;;;;;12.33;11.67;;;;;25.59;59.65;101286.13;5037595;28;45943;-70
2023/07/09 03:40:33;;;;;;;;;11.33;11.33;;;;;25.58;58.98;101285.31;5037686;28;45594;-69
2023/07/09 03:42:59;;;;;;;;;7.67;7.67;;;;;25.59;59.25;101292.41;5037384;28;46051;-69
2023/07/09 03:45:24;;;;;;;;;10.00;10.00;;;;;25.22;59.11;101236.38;5037318;28;45521;-70
2023/07/09 03:47:49;;;;;;;;;10.33;10.33;;;;;25.52;59.22;101283.50;5037671;28;45315;-71
2023/07/09 03:50:15;;;;;;;;;12.67;11.00;;;;;25.55;59.04;101290.38;5037448;28;45427;-69
2023/07/09 03:52:41;;;;;;;;;9.33;9.33;;;;;25.54;58.89;101300.44;5037007;28;47389;-69
2023/07/09 03:55:07;;;;;;;;;6.67;6.67;;;;;25.54;59.27;101303.16;5036866;28;45318;-70
2023/07/09 03:57:34;;;;;;;;;7.67;7.67;;;;;25.53;59.38;101300.69;5070365;28;45227;-70
2023/07/09 03:59:59;;;;;;;;;9.00;9.00;;;;;25.48;59.05;101285.88;5077776;28;45469;-68
2023/07/09 04:02:25;;;;;;;;;10.67;9.33;;;;;25.48;58.88;101288.59;5077324;28;46629;-70
2023/07/09 04:04:50;;;;;;;;;9.67;9.00;;;;;25.45;59.21;101286.34;5077315;28;45478;-69
2023/07/09 04:07:15;;;;;;;;;9.00;8.67;;;;;25.32;59.04;101272.06;5077443;27;45524;-71
2023/07/09 04:09:41;;;;;;;;;11.33;10.33;;;;;25.39;58.94;101292.66;5059151;28;45336;-70
2023/07/09 04:12:08;;;;;;;;;11.33;10.00;;;;;25.39;59.05;101295.38;5077222;28;46697;-71
2023/07/09 04:14:33;;;;;;;;;14.00;11.33;;;;;25.36;59.30;101295.03;5077454;28;45542;-71
2023/07/09 04:16:59;;;;;;;;;13.33;11.00;;;;;24.67;59.14;101182.81;5077290;28;45215;-70
2023/07/09 04:19:25;;;;;;;;;12.33;11.33;;;;;25.38;59.20;101303.78;5077718;28;45466;-70
2023/07/09 04:21:50;;;;;;;;;10.00;10.00;;;;;25.38;58.79;101306.50;5077282;28;45286;-70
2023/07/09 04:24:19;;;;;;;;;9.00;8.00;;;;;25.32;58.99;101294.66;5077127;28;45360;-70
2023/07/09 04:26:45;;;;;;;;;12.67;9.33;;;;;25.34;58.70;101291.69;5077435;28;45490;-70
2023/07/09 04:29:11;;;;;;;;;10.00;10.00;;;;;25.34;59.02;101292.53;5077368;27;45571;-70
2023/07/09 04:31:37;;;;;;;;;12.33;11.33;;;;;25.37;59.04;101296.69;5076876;28;46652;-70
2023/07/09 04:34:03;;;;;;;;;10.00;10.00;;;;;25.44;58.43;101302.91;5076997;27;45304;-71
2023/07/09 04:36:29;;;;;;;;;10.33;9.33;;;;;25.40;58.71;101291.59;5077151;27;45278;-71
2023/07/09 04:38:54;;;;;;;;;14.33;12.67;;;;;25.44;58.36;101308.34;5077057;28;45436;-72
2023/07/09 04:41:19;;;;;;;;;10.00;10.00;;;;;25.52;58.51;101309.91;5077024;28;47174;-70
2023/07/09 04:43:44;;;;;;;;;12.33;11.33;;;;;25.49;58.14;101294.88;5076579;27;54518;-71
2023/07/09 04:46:10;;;;;;;;;13.67;11.67;;;;;25.45;58.15;101289.06;5077251;28;45333;-69
2023/07/09 04:48:35;;;;;;;;;12.67;10.33;;;;;25.40;58.00;101285.34;5077210;28;45474;-69
2023/07/09 04:51:01;;;;;;;;;10.33;10.33;;;;;25.48;57.39;101299.47;5076345;28;60752;-69
2023/07/09 04:53:27;;;;;;;;;10.00;8.67;;;;;25.49;57.03;101294.88;5077067;27;45375;-70
2023/07/09 04:55:52;;;;;;;;;9.00;8.00;;;;;25.46;57.25;101285.28;5076710;28;45451;-70
2023/07/09 04:58:20;;;;;;;;;10.67;10.67;;;;;25.22;56.39;101234.47;5076952;28;45427;-71
2023/07/09 05:00:45;;;;;;;;;13.33;12.00;;;;;25.48;56.40;101274.16;5076453;27;47762;-71
2023/07/09 05:03:11;;;;;;;;;9.00;9.00;;;;;25.28;56.10;101241.75;5075869;28;45307;-69
2023/07/09 05:05:47;;;;;;;;;8.67;8.67;;;;;25.54;55.54;101286.00;5076776;28;45304;-69
2023/07/09 05:08:13;;;;;;;;;8.00;8.00;;;;;25.38;55.86;101265.69;5076938;28;45478;-69
2023/07/09 05:10:46;;;;;;;;;9.33;9.33;;;;;25.07;55.94;101225.88;5076022;28;46756;-70
2023/07/09 05:13:15;;;;;;;;;12.33;8.67;;;;;25.22;55.81;101263.56;5057827;28;45324;-71
2023/07/09 05:15:43;;;;;;;;;9.00;8.33;;;;;25.29;56.07;101288.84;5076445;27;45208;-70
2023/07/09 05:18:08;;;;;;;;;9.00;9.00;;;;;25.29;55.94;101277.94;5057856;28;45498;-70
2023/07/09 05:20:34;;;;;;;;;8.67;8.67;;;;;25.23;56.56;101257.06;5075562;28;46446;-71
2023/07/09 05:23:00;;;;;;;;;10.00;8.33;;;;;25.09;56.13;101218.31;5056733;28;45502;-71
2023/07/09 05:25:25;;;;;;;;;8.33;8.33;;;;;25.48;56.32;101282.31;5076192;28;45312;-70
2023/07/09 05:27:51;;;;;;;;;8.00;8.00;;;;;25.43;55.38;101274.00;5076305;27;45306;-70
2023/07/09 05:30:17;;;;;;;;;8.33;7.33;;;;;25.48;55.41;101288.59;5075642;28;45750;-70
2023/07/09 05:32:42;;;;;;;;;8.33;8.00;;;;;25.49;55.09;101292.16;5077108;28;45490;-71
2023/07/09 05:35:08;;;;;;;;;9.67;9.67;;;;;25.53;54.98;101285.16;5062100;28;45329;-70
2023/07/09 05:37:33;;;;;;;;;9.67;9.00;;;;;25.55;54.37;101266.72;5080150;28;45319;-70
2023/07/09 05:39:59;;;;;;;;;10.00;8.33;;;;;25.66;54.07;101285.00;5079705;28;46698;-71
2023/07/09 05:42:24;;;;;;;;;9.00;7.67;;;;;25.75;54.02;101297.25;5079910;27;45268;-70
2023/07/09 05:44:51;;;;;;;;;11.00;8.33;;;;;25.69;53.87;101279.13;5080074;28;45172;-70
2023/07/09 05:47:16;;;;;;;;;9.00;9.00;;;;;25.86;53.24;101300.28;5080060;27;45220;-68
2023/07/09 05:49:42;;;;;;;;;8.33;8.33;;;;;25.75;52.70;101272.75;5079560;28;46644;-70
2023/07/09 05:52:07;;;;;;;;;6.00;4.67;;;;;25.92;52.80;101283.81;5079698;27;45315;-71
2023/07/09 05:54:33;;;;;;;;;6.67;6.00;;;;;25.60;52.54;101226.00;5061348;28;45500;-70
2023/07/09 05:56:58;;;;;;;;;11.00;8.00;;;;;25.65;52.70;101239.78;5079637;28;45174;-70
2023/07/09 05:59:23;;;;;;;;;9.67;9.33;;;;;26.01;52.80;101276.13;5077998;27;48001;-74
2023/07/09 06:01:49;;;;;;;;;7.00;6.00;;;;;25.93;52.68;101260.13;5061394;28;45312;-70
2023/07/09 06:04:14;;;;;;;;;8.00;8.00;;;;;26.16;52.24;101273.81;5079423;27;45300;-71
2023/07/09 06:06:42;;;;;;;;;8.00;8.00;;;;;26.51;51.10;101264.88;5080071;28;45447;-71
2023/07/09 06:09:08;;;;;;;;;9.67;8.00;;;;;27.23;49.85;101289.97;5079326;28;47698;-71
2023/07/09 06:11:35;;;;;;;;;8.00;8.00;;;;;27.72;48.27;101287.72;5079333;28;45476;-70
2023/07/09 06:14:00;;;;;;;;;9.33;8.33;;;;;27.89;46.91;101266.72;5079472;27;45510;-69
2023/07/09 06:16:27;;;;;;;;;7.67;7.67;;;;;28.23;45.88;101288.59;5061369;28;45292;-69
2023/07/09 06:18:52;;;;;;;;;9.00;7.33;;;;;28.35;45.64;101282.00;5077926;27;45634;-69
2023/07/09 06:21:17;;;;;;;;;7.00;5.33;;;;;28.46;45.89;101294.78;5078593;28;55510;-70
2023/07/09 06:23:43;;;;;;;;;9.00;8.00;;;;;28.40;45.98;101292.19;5056317;28;45432;-70
2023/07/09 06:26:08;;;;;;;;;7.00;7.00;;;;;28.40;45.64;101311.34;5078473;28;45432;-70
2023/07/09 06:28:33;;;;;;;;;11.33;9.33;;;;;28.33;45.29;101305.22;5079108;28;45779;-70
2023/07/09 06:30:59;;;;;;;;;8.00;6.33;;;;;27.73;45.35;101234.72;5077839;28;45436;-69
2023/07/09 06:33:25;;;;;;;;;7.00;7.00;;;;;28.17;45.95;101328.69;5079159;28;45321;-71
2023/07/09 06:35:56;;;;;;;;;7.00;6.00;;;;;28.14;46.31;101330.03;5079376;28;45316;-70
2023/07/09 06:38:22;;;;;;;;;6.33;6.33;;;;;28.24;45.32;101334.03;5077491;28;47196;-71
2023/07/09 06:40:48;;;;;;;;;7.33;7.33;;;;;28.20;45.69;101341.88;5078395;28;45619;-71
2023/07/09 06:43:13;;;;;;;;;10.33;7.33;;;;;28.24;45.37;101331.31;5078912;27;45464;-71
2023/07/09 06:45:47;;;;;;;;;6.33;6.33;;;;;28.21;45.68;101323.56;5077882;28;45670;-70
2023/07/09 06:48:12;;;;;;;;;8.00;7.00;;;;;28.25;45.65;101330.22;5078362;27;46538;-70
2023/07/09 06:50:38;;;;;;;;;7.67;6.67;;;;;28.10;45.61;101339.81;5078275;27;52414;-68
2023/07/09 06:53:03;;;;;;;;;4.00;4.00;;;;;27.96;45.96;101338.44;5060484;28;45364;-70
2023/07/09 06:55:29;;;;;;;;;9.33;8.33;;;;;27.71;46.25;101327.03;5078510;28;45380;-70
2023/07/09 06:57:54;;;;;;;;;6.33;6.33;;;;;27.65;46.84;101353.44;5078562;28;45492;-69
2023/07/09 07:00:20;;;;;;;;;9.00;7.67;;;;;26.95;47.43;101283.34;5078686;28;45427;-70
2023/07/09 07:02:45;;;;;;;;;9.33;8.33;;;;;27.15;47.97;101332.13;5078725;28;45343;-71
2023/07/09 07:05:10;;;;;;;;;9.67;7.33;;;;;26.95;48.25;101313.38;5078563;27;45433;-70
2023/07/09 07:07:36;;;;;;;;;8.00;8.00;;;;;27.29;47.38;101321.78;5077277;27;45726;-72
2023/07/09 07:10:01;;;;;;;;;9.00;7.33;;;;;27.62;47.18;101320.25;5059980;28;45407;-69
2023/07/09 07:12:29;;;;;;;;;8.00;8.00;;;;;28.06;46.23;101332.34;5078554;27;45344;-71
2023/07/09 07:14:56;;;;;;;;;9.00;8.67;;;;;28.57;45.55;101320.38;5078822;27;45399;-70
2023/07/09 07:17:22;;;;;;;;;6.67;6.00;;;;;28.88;43.86;101305.31;5067246;28;45372;-71
2023/07/09 07:19:49;;;;;;;;;9.00;8.00;;;;;29.20;43.92;101310.91;5057656;28;45340;-69
2023/07/09 07:22:14;;;;;;;;;7.00;7.00;;;;;29.76;43.10;101330.81;5069568;27;45300;-68
2023/07/09 07:24:40;;;;;;;;;8.00;8.00;;;;;30.42;41.77;101333.38;5078209;28;45399;-71
2023/07/09 07:27:05;;;;;;;;;3.67;3.67;;;;;31.10;39.69;101332.53;5076732;28;47612;-71
2023/07/09 07:29:33;;;;;;;;;5.67;5.00;;;;;31.31;38.09;101314.25;5060044;28;45428;-67
2023/07/09 07:32:00;;;;;;;;;5.67;5.33;;;;;31.33;38.46;101344.22;5059904;28;45336;-72
2023/07/09 07:34:25;;;;;;;;;8.00;7.00;;;;;31.05;38.30;101324.28;5078309;28;45509;-71
2023/07/09 07:36:51;;;;;;;;;6.00;6.00;;;;;31.02;38.83;101355.00;5078063;28;46521;-73
2023/07/09 07:39:16;;;;;;;;;6.67;5.67;;;;;30.62;39.12;101360.19;5057992;28;45554;-71
2023/07/09 07:41:41;;;;;;;;;9.67;8.00;;;;;30.18;40.22;101352.09;5077870;28;45262;-73
2023/07/09 07:44:07;;;;;;;;;7.33;6.33;;;;;29.91;41.02;101357.56;5078342;28;45235;-73
2023/07/09 07:46:34;;;;;;;;;8.00;6.67;;;;;29.75;41.40;101356.56;5078024;27;46431;-70
2023/07/09 07:49:00;;;;;;;;;6.00;6.00;;;;;29.61;42.13;101383.53;5078142;27;45344;-72
2023/07/09 07:51:26;;;;;;;;;7.00;7.00;;;;;29.35;42.32;101387.81;5059524;28;45343;-71
2023/07/09 07:53:52;;;;;;;;;8.67;7.33;;;;;29.00;42.91;101376.34;5078065;28;45515;-73
2023/07/09 07:56:18;;;;;;;;;7.00;7.00;;;;;29.20;43.65;101434.16;5076294;27;45645;-72
2023/07/09 07:58:43;;;;;;;;;8.67;8.67;;;;;28.96;44.44;101424.47;5077756;28;45344;-75
2023/07/09 08:01:09;;;;;;;;;7.00;7.00;;;;;28.79;45.49;101429.91;5077762;28;45421;-73
2023/07/09 08:03:34;;;;;;;;;7.33;6.67;;;;;28.37;45.44;101399.38;5077863;27;45546;-71
2023/07/09 08:06:00;;;;;;;;;10.33;10.33;;;;;28.39;45.89;101435.50;5077295;28;45486;-73
2023/07/09 08:08:25;;;;;;;;;12.33;11.33;;;;;28.01;46.77;101381.44;5077470;28;45506;-71
2023/07/09 08:10:51;;;;;;;;;8.67;8.33;;;;;28.08;47.07;101402.09;5058831;27;45411;-73
2023/07/09 08:13:16;;;;;;;;;8.00;8.00;;;;;27.95;47.42;101391.44;5076078;27;45485;-74
2023/07/09 08:15:42;;;;;;;;;8.33;8.33;;;;;27.86;47.60;101388.28;5075838;28;46447;-71
2023/07/09 08:18:07;;;;;;;;;8.00;6.67;;;;;27.74;47.88;101389.38;5077130;28;45612;-70
2023/07/09 08:20:33;;;;;;;;;11.00;9.67;;;;;27.70;48.16;101382.75;5077274;28;45269;-69
2023/07/09 08:22:58;;;;;;;;;7.00;7.00;;;;;27.67;47.81;101381.34;5077488;28;45775;-72
2023/07/09 08:25:23;;;;;;;;;8.00;7.67;;;;;27.59;48.47;101381.66;5076847;28;45547;-72
2023/07/09 08:27:49;;;;;;;;;11.33;9.00;;;;;27.52;48.67;101380.97;5076406;28;63140;-72
2023/07/09 08:30:14;;;;;;;;;11.00;10.00;;;;;27.37;48.17;101384.19;5077249;27;45237;-73
2023/07/09 08:32:39;;;;;;;;;10.00;7.33;;;;;27.25;48.69;101375.22;5059192;28;45583;-72
2023/07/09 08:35:05;;;;;;;;;7.33;6.33;;;;;27.20;49.16;101388.72;5077468;27;46108;-74
2023/07/09 08:37:30;;;;;;;;;9.67;8.00;;;;;27.18;48.65;101385.41;5059209;28;45942;-74
2023/07/09 08:39:56;;;;;;;;;8.67;7.00;;;;;27.16;48.50;101379.34;5076954;28;45868;-72
2023/07/09 08:42:31;;;;;;;;;8.33;8.33;;;;;27.10;49.17;101418.53;5076413;28;45308;-72
2023/07/09 08:45:22;;;;;;;;;6.67;6.67;;;;;27.17;49.05;101441.06;5076784;28;46487;-72
2023/07/09 08:48:05;;;;;;;;;10.33;9.67;;;;;27.14;49.45;101461.50;5054887;28;45545;-73
2023/07/09 08:50:42;;;;;;;;;8.00;8.00;;;;;27.11;50.59;101448.31;5077095;27;45462;-73
2023/07/09 08:53:18;;;;;;;;;9.00;9.00;;;;;27.05;51.16;101442.97;5077067;28;45227;-72
2023/07/09 08:55:45;;;;;;;;;9.67;9.67;;;;;27.00;51.25;101437.38;5076167;28;46685;-73
2023/07/09 08:58:19;;;;;;;;;8.67;7.00;;;;;26.96;51.34;101448.75;5058523;28;45977;-71
2023/07/09 09:00:54;;;;;;;;;8.67;8.67;;;;;27.18;51.02;101479.06;5076640;28;45482;-75
2023/07/09 09:03:22;;;;;;;;;3.00;3.00;;;;;27.19;50.86;101485.34;5076479;28;45444;-72
2023/07/09 09:05:49;;;;;;;;;5.33;5.33;;;;;26.82;50.69;101463.66;5069864;28;46771;-74
2023/07/09 09:08:14;;;;;;;;;8.00;7.00;;;;;26.89;50.28;101475.31;5076891;27;45503;-74
2023/07/09 09:10:47;;;;;;;;;9.00;9.00;;;;;26.56;50.68;101429.44;5078161;27;45493;-71
2023/07/09 09:13:19;;;;;;;;;8.67;8.67;;;;;26.81;50.94;101455.69;5080226;27;45476;-72
2023/07/09 09:15:47;;;;;;;;;7.67;7.67;;;;;26.56;50.51;101417.69;5080279;28;45743;-72
2023/07/09 09:18:23;;;;;;;;;8.33;8.33;;;;;26.60;51.15;101444.28;5059837;28;45511;-71
2023/07/09 09:20:56;;;;;;;;;9.33;9.33;;;;;26.55;51.53;101424.22;5059778;28;45309;-69
2023/07/09 09:23:22;;;;;;;;;11.00;8.00;;;;;26.55;51.15;101432.41;5059943;28;45482;-69
2023/07/09 09:25:53;;;;;;;;;8.33;8.33;;;;;26.48;50.52;101431.69;5059380;28;47160;-69
2023/07/09 09:28:19;;;;;;;;;7.50;7.50;;;;;26.27;50.79;101419.38;5059808;28;45561;-70
2023/07/09 09:30:44;;;;;;;;;7.00;5.00;;;;;26.23;50.79;101415.41;5059703;28;45373;-69
2023/07/09 09:33:11;;;;;;;;;11.00;8.00;;;;;26.26;51.59;101406.81;5063753;28;45404;-70
2023/07/09 09:35:45;;;;;;;;;8.00;8.00;;;;;26.07;51.07;101381.50;5079418;28;46451;-71
2023/07/09 09:38:13;;;;;;;;;7.00;7.00;;;;;26.34;50.84;101426.41;5079501;27;45521;-68
2023/07/09 09:40:39;;;;;;;;;8.00;8.00;;;;;26.23;51.05;101409.97;5079655;27;45520;-69
2023/07/09 09:43:13;;;;;;;;;8.67;7.67;;;;;26.44;51.03;101435.94;5061875;28;45384;-69
2023/07/09 09:45:40;;;;;;;;;7.67;7.67;;;;;26.41;50.28;101441.84;5079801;27;45670;-70
2023/07/09 09:48:14;;;;;;;;;6.00;6.00;;;;;26.51;49.76;101466.66;5079582;28;45677;-68
2023/07/09 09:50:40;;;;;;;;;9.33;7.33;;;;;26.21;50.90;101418.38;5079597;28;45431;-70
2023/07/09 09:53:08;;;;;;;;;8.00;7.00;;;;;26.47;51.74;101457.28;5069014;28;45224;-68
2023/07/09 09:55:34;;;;;;;;;9.00;9.00;;;;;26.74;52.62;101482.28;5049315;28;47580;-75
2023/07/09 09:58:02;;;;;;;;;10.67;8.00;;;;;26.79;52.30;101480.50;5076614;27;45395;-73
2023/07/09 10:00:29;;;;;;;;;14.67;10.33;;;;;26.78;52.79;101484.28;5061178;28;45427;-74
2023/07/09 10:03:03;;;;;;;;;8.00;7.00;;;;;26.80;51.72;101479.44;5079739;28;45241;-71
2023/07/09 10:05:50;;;;;;;;;9.67;6.67;;;;;26.70;52.26;101461.97;5079468;27;47190;-74
2023/07/09 10:08:44;;;;;;;;;7.33;7.00;;;;;26.88;51.86;101495.47;5079046;27;45305;-73
2023/07/09 10:11:28;;;;;;;;;7.00;6.00;;;;;26.88;50.75;101500.94;5079101;28;45260;-73
2023/07/09 10:13:57;;;;;;;;;6.33;6.33;;;;;26.86;50.98;101481.25;5079437;28;45509;-75
2023/07/09 10:16:38;;;;;;;;;7.33;6.33;;;;;26.73;51.59;101448.69;5078827;28;46226;-75
2023/07/09 10:19:34;;;;;;;;;7.33;7.33;;;;;26.41;51.93;101368.22;5057693;28;45539;-70
2023/07/09 10:22:02;;;;;;;;;8.33;8.33;;;;;26.46;53.24;101382.84;5075540;28;45442;-68
2023/07/09 10:25:22;;;;;;;;;11.33;10.00;;;;;26.47;53.87;101384.50;5078811;28;45204;-69
2023/07/09 10:28:06;;;;;;;;;8.67;8.67;;;;;26.56;53.08;101394.00;4976168;28;46876;-68
2023/07/09 10:30:41;;;;;;;;;9.00;9.00;;;;;26.61;53.13;101393.28;5077009;28;45383;-68
2023/07/09 10:33:11;;;;;;;;;6.67;6.67;;;;;26.59;52.85;101398.97;5077131;28;45434;-69
2023/07/09 10:35:44;;;;;;;;;9.33;8.33;;;;;26.51;52.58;101379.41;5078282;28;45573;-69
2023/07/09 10:38:33;;;;;;;;;11.00;9.67;;;;;26.66;52.24;101412.53;5077807;28;46621;-75
2023/07/09 10:41:00;;;;;;;;;11.00;8.33;;;;;26.73;51.84;101418.69;5075681;27;45577;-69
2023/07/09 10:43:48;;;;;;;;;10.33;9.00;;;;;26.74;51.87;101431.25;5077601;28;45456;-71
2023/07/09 10:46:16;;;;;;;;;9.00;7.67;;;;;26.95;52.03;101449.81;5077643;28;45564;-68
2023/07/09 10:48:46;;;;;;;;;9.33;8.33;;;;;27.13;51.66;101459.81;5055828;28;48768;-69
2023/07/09 10:51:20;;;;;;;;;10.00;9.00;;;;;27.19;50.78;101437.03;5058233;28;45463;-69
2023/07/09 10:53:56;;;;;;;;;10.00;8.67;;;;;27.28;49.58;101435.63;5058316;28;45411;-69
2023/07/09 10:56:25;;;;;;;;;8.67;7.67;;;;;27.49;49.41;101453.31;5056251;28;45493;-69
2023/07/09 10:59:05;;;;;;;;;10.00;10.00;;;;;27.69;49.88;101452.94;5058170;28;46415;-70
2023/07/09 11:01:42;;;;;;;;;14.67;11.00;;;;;28.00;49.63;101451.66;5058089;28;45325;-69
2023/07/09 11:04:28;;;;;;;;;14.33;11.00;;;;;28.20;49.33;101443.03;5058308;28;45567;-69
2023/07/09 11:06:58;;;;;;;;;15.33;14.00;;;;;28.01;48.81;101385.00;5058303;28;45344;-69
2023/07/09 11:09:37;;;;;;;;;13.33;12.33;;;;;28.45;49.14;101437.28;5057729;28;45970;-69
2023/07/09 11:12:09;;;;;;;;;13.00;12.67;;;;;28.46;49.26;101414.31;5057770;28;45428;-69
2023/07/09 11:14:45;;;;;;;;;14.33;11.33;;;;;28.64;47.56;101430.50;5058088;28;45372;-69
2023/07/09 11:17:16;;;;;;;;;11.00;11.00;;;;;28.56;48.18;101417.22;5056810;28;45503;-69
2023/07/09 11:20:07;;;;;;;;;8.00;8.00;;;;;28.10;46.73;101363.59;5057833;28;48259;-70
2023/07/09 11:22:39;;;;;;;;;10.67;10.67;;;;;28.22;47.51;101415.44;5058059;28;45377;-68
2023/07/09 11:25:04;;;;;;;;;11.00;10.00;;;;;28.18;47.80;101407.75;5057800;28;45308;-69